createdAt,value
2022-07-31T00:00:28.385Z,4.75
2022-07-31T00:02:56.809Z,5.20
2022-07-31T00:05:25.589Z,5.25
2022-07-31T00:07:54.744Z,5.20
2022-07-31T00:10:23.223Z,5.40
2022-07-31T00:12:51.113Z,5.45
2022-07-31T00:15:19.177Z,8.10
2022-07-31T00:17:47.302Z,5.65
2022-07-31T00:20:17.064Z,5.93
2022-07-31T00:22:47.033Z,6.35
2022-07-31T00:25:16.213Z,6.70
2022-07-31T00:27:44.629Z,6.78
2022-07-31T00:30:17.607Z,7.00
2022-07-31T00:32:46.089Z,6.22
2022-07-31T00:35:14.369Z,7.00
2022-07-31T00:37:43.323Z,7.35
2022-07-31T00:40:14.212Z,6.95
2022-07-31T00:42:42.165Z,8.18
2022-07-31T00:45:10.739Z,7.40
2022-07-31T00:47:42.345Z,6.28
2022-07-31T00:50:11.604Z,6.00
2022-07-31T00:52:39.583Z,6.87
2022-07-31T00:55:08.255Z,6.32
2022-07-31T00:57:36.978Z,5.43
2022-07-31T01:00:05.886Z,5.87
2022-07-31T01:02:34.105Z,5.35
2022-07-31T01:05:02.058Z,5.37
2022-07-31T01:07:30.003Z,5.30
2022-07-31T01:09:59.563Z,5.10
2022-07-31T01:12:36.504Z,5.28
2022-07-31T01:15:08.034Z,4.50
2022-07-31T01:17:37.144Z,4.78
2022-07-31T01:20:06.348Z,4.22
2022-07-31T01:22:43.201Z,3.83
2022-07-31T01:25:52.705Z,4.87
2022-07-31T01:28:27.005Z,4.18
2022-07-31T01:31:25.437Z,4.43
2022-07-31T01:34:04.073Z,4.30
2022-07-31T01:36:35.391Z,3.78
2022-07-31T01:39:04.405Z,4.07
2022-07-31T01:41:36.715Z,4.45
2022-07-31T01:44:05.624Z,3.70
2022-07-31T01:46:37.286Z,3.22
2022-07-31T01:49:10.262Z,3.73
2022-07-31T01:51:40.278Z,4.07
2022-07-31T01:54:09.077Z,3.60
2022-07-31T01:56:37.475Z,3.70
2022-07-31T01:59:15.553Z,3.53
2022-07-31T02:01:52.191Z,3.83
2022-07-31T02:04:20.807Z,3.75
2022-07-31T02:06:50.193Z,3.50
2022-07-31T02:09:19.453Z,3.47
2022-07-31T02:11:54.662Z,3.20
2022-07-31T02:14:24.663Z,3.25
2022-07-31T02:16:52.955Z,3.00
2022-07-31T02:19:23.420Z,2.62
2022-07-31T02:21:51.425Z,2.80
2022-07-31T02:24:19.905Z,3.50
2022-07-31T02:26:47.923Z,3.25
2022-07-31T02:29:19.672Z,3.65
2022-07-31T02:32:03.533Z,3.67
2022-07-31T02:34:33.224Z,3.47
2022-07-31T02:37:01.955Z,3.70
2022-07-31T02:39:30.883Z,3.37
2022-07-31T02:42:01.599Z,3.65
2022-07-31T02:44:32.525Z,3.67
2022-07-31T02:47:02.722Z,3.35
2022-07-31T02:49:33.719Z,3.30
2022-07-31T02:52:02.445Z,3.53
2022-07-31T02:54:31.224Z,3.50
2022-07-31T02:57:00.155Z,3.50
2022-07-31T02:59:28.034Z,3.53
2022-07-31T03:01:56.573Z,3.45
2022-07-31T03:04:24.805Z,3.95
2022-07-31T03:06:53.424Z,3.20
2022-07-31T03:09:21.804Z,3.75
2022-07-31T03:11:49.878Z,2.87
2022-07-31T03:14:18.670Z,3.78
2022-07-31T03:16:48.137Z,3.87
2022-07-31T03:19:16.433Z,4.00
2022-07-31T03:21:44.440Z,3.87
2022-07-31T03:24:12.555Z,3.85
2022-07-31T03:26:40.459Z,4.12
2022-07-31T03:29:42.673Z,3.95
2022-07-31T03:31:56.447Z,4.65
2022-07-31T03:34:24.296Z,4.20
2022-07-31T03:36:53.447Z,4.93
2022-07-31T03:39:21.654Z,4.50
2022-07-31T03:41:51.445Z,4.55
2022-07-31T03:44:20.795Z,5.00
2022-07-31T03:46:48.882Z,4.62
2022-07-31T03:49:17.614Z,4.95
2022-07-31T03:51:45.675Z,5.32
2022-07-31T03:54:13.857Z,5.15
2022-07-31T03:56:47.325Z,4.68
2022-07-31T03:59:17.694Z,5.05
2022-07-31T04:01:57.493Z,4.87
2022-07-31T04:04:28.629Z,4.62
2022-07-31T04:06:57.526Z,5.00
2022-07-31T04:09:25.544Z,5.10
2022-07-31T04:11:53.756Z,4.65
2022-07-31T04:14:22.035Z,4.97
2022-07-31T04:16:49.884Z,4.70
2022-07-31T04:19:18.512Z,5.07
2022-07-31T04:21:46.345Z,4.45
2022-07-31T04:24:17.114Z,4.68
2022-07-31T04:26:45.639Z,4.78
2022-07-31T04:29:13.673Z,4.85
2022-07-31T04:31:41.486Z,4.47
2022-07-31T04:34:10.115Z,3.75
2022-07-31T04:36:38.603Z,4.57
2022-07-31T04:39:06.871Z,3.97
2022-07-31T04:41:35.274Z,3.87
2022-07-31T04:44:03.156Z,4.18
2022-07-31T04:46:31.444Z,4.05
2022-07-31T04:48:59.670Z,4.18
2022-07-31T04:51:27.981Z,4.00
2022-07-31T04:53:56.784Z,4.05
2022-07-31T04:56:42.354Z,4.10
2022-07-31T04:59:13.790Z,4.82
2022-07-31T05:01:43.272Z,4.35
2022-07-31T05:04:11.551Z,4.18
2022-07-31T05:06:47.219Z,3.95
2022-07-31T05:09:19.511Z,3.87
2022-07-31T05:14:21.649Z,3.83
2022-07-31T05:16:49.853Z,4.00
2022-07-31T05:19:18.217Z,4.18
2022-07-31T05:21:53.755Z,4.30
2022-07-31T05:24:33.521Z,4.10
2022-07-31T05:27:02.900Z,3.95
2022-07-31T05:29:32.184Z,4.65
2022-07-31T05:32:01.571Z,4.53
2022-07-31T05:34:30.554Z,4.40
2022-07-31T05:37:01.668Z,4.85
2022-07-31T05:39:30.375Z,5.10
2022-07-31T05:42:01.708Z,5.03
2022-07-31T05:44:30.816Z,5.47
2022-07-31T05:49:29.083Z,5.28
2022-07-31T05:51:57.587Z,5.00
2022-07-31T05:54:25.373Z,5.05
2022-07-31T05:57:00.436Z,5.25
2022-07-31T05:59:29.120Z,4.65
2022-07-31T06:01:57.044Z,5.00
2022-07-31T06:04:27.110Z,4.50
2022-07-31T06:06:55.017Z,4.20
2022-07-31T06:09:22.843Z,4.22
2022-07-31T06:11:53.764Z,4.35
2022-07-31T06:14:21.506Z,4.85
2022-07-31T06:16:50.398Z,4.35
2022-07-31T06:19:24.514Z,4.00
2022-07-31T06:21:54.064Z,4.40
2022-07-31T06:24:22.886Z,3.87
2022-07-31T06:26:50.736Z,4.07
2022-07-31T06:29:18.576Z,4.10
2022-07-31T06:31:47.195Z,3.87
2022-07-31T06:34:19.792Z,4.75
2022-07-31T06:36:48.905Z,4.05
2022-07-31T06:39:17.606Z,4.35
2022-07-31T06:41:48.067Z,3.92
2022-07-31T06:44:23.895Z,4.57
2022-07-31T06:46:55.815Z,4.00
2022-07-31T06:49:26.382Z,3.97
2022-07-31T06:51:54.282Z,4.22
2022-07-31T06:54:22.264Z,3.45
2022-07-31T06:56:55.579Z,3.80
2022-07-31T06:59:39.306Z,3.40
2022-07-31T07:02:09.346Z,3.40
2022-07-31T07:05:01.485Z,4.15
2022-07-31T07:07:31.518Z,3.08
2022-07-31T07:10:00.199Z,3.37
2022-07-31T07:12:31.591Z,3.40
2022-07-31T07:14:59.706Z,3.70
2022-07-31T07:17:29.423Z,3.20
2022-07-31T07:19:58.443Z,2.75
2022-07-31T07:22:31.586Z,2.60
2022-07-31T07:25:01.395Z,2.83
2022-07-31T07:27:29.909Z,2.55
2022-07-31T07:29:57.926Z,2.78
2022-07-31T07:32:26.685Z,2.30
2022-07-31T07:35:00.042Z,2.75
2022-07-31T07:37:31.369Z,2.47
2022-07-31T07:40:08.485Z,2.70
2022-07-31T07:42:37.507Z,2.62
2022-07-31T07:45:08.014Z,2.67
2022-07-31T07:48:02.867Z,2.50
2022-07-31T07:50:27.008Z,4.07
2022-07-31T07:53:00.804Z,2.70
2022-07-31T07:55:37.394Z,2.85
2022-07-31T07:58:12.032Z,2.28
2022-07-31T08:00:42.977Z,2.08
2022-07-31T08:03:49.762Z,2.25
2022-07-31T08:05:59.585Z,2.40
2022-07-31T08:08:28.306Z,1.98
2022-07-31T08:10:59.397Z,2.20
2022-07-31T08:13:30.765Z,2.40
2022-07-31T08:16:04.657Z,2.37
2022-07-31T08:18:33.057Z,2.10
2022-07-31T08:21:00.982Z,2.30
2022-07-31T08:23:28.955Z,2.00
2022-07-31T08:25:57.314Z,2.00
2022-07-31T08:28:26.904Z,1.77
2022-07-31T08:30:55.133Z,2.00
2022-07-31T08:33:23.906Z,1.83
2022-07-31T08:35:52.236Z,2.05
2022-07-31T08:38:20.336Z,1.40
2022-07-31T08:40:49.125Z,1.65
2022-07-31T08:44:01.801Z,1.70
2022-07-31T08:46:05.685Z,1.50
2022-07-31T08:48:35.115Z,1.90
2022-07-31T08:51:03.999Z,2.20
2022-07-31T08:53:36.979Z,1.70
2022-07-31T08:56:06.615Z,1.85
2022-07-31T08:58:39.091Z,1.50
2022-07-31T09:01:11.963Z,1.60
2022-07-31T09:03:40.347Z,1.52
2022-07-31T09:06:08.257Z,1.50
2022-07-31T09:08:37.451Z,1.65
2022-07-31T09:11:09.999Z,1.80
2022-07-31T09:13:38.865Z,2.33
2022-07-31T09:16:08.205Z,1.58
2022-07-31T09:18:36.026Z,1.60
2022-07-31T09:21:06.206Z,1.70
2022-07-31T09:23:45.308Z,2.03
2022-07-31T09:26:13.645Z,1.70
2022-07-31T09:28:46.004Z,2.45
2022-07-31T09:31:14.286Z,2.00
2022-07-31T09:33:46.335Z,1.90
2022-07-31T09:36:24.116Z,2.03
2022-07-31T09:38:53.588Z,2.20
2022-07-31T09:42:00.995Z,2.40
2022-07-31T09:44:14.687Z,2.00
2022-07-31T09:46:44.644Z,2.03
2022-07-31T09:49:13.510Z,1.92
2022-07-31T09:51:43.971Z,1.90
2022-07-31T09:54:22.375Z,2.17
2022-07-31T09:56:52.826Z,1.90
2022-07-31T09:59:21.175Z,2.10
2022-07-31T10:01:49.527Z,1.70
2022-07-31T10:04:18.894Z,1.70
2022-07-31T10:06:49.118Z,2.10
2022-07-31T10:09:21.690Z,2.00
2022-07-31T10:11:50.859Z,2.10
2022-07-31T10:14:22.749Z,2.40
2022-07-31T10:16:52.927Z,2.17
2022-07-31T10:19:22.845Z,2.10
2022-07-31T10:21:56.218Z,2.03
2022-07-31T10:24:28.422Z,1.67
2022-07-31T10:27:01.538Z,2.05
2022-07-31T10:29:32.396Z,2.00
2022-07-31T10:32:01.558Z,2.12
2022-07-31T10:34:29.747Z,2.37
2022-07-31T10:37:11.248Z,2.55
2022-07-31T10:39:58.827Z,2.30
2022-07-31T10:42:40.357Z,1.90
2022-07-31T10:45:11.233Z,2.00
2022-07-31T10:47:48.742Z,1.83
2022-07-31T10:50:24.157Z,2.42
2022-07-31T10:53:00.211Z,2.28
2022-07-31T10:55:30.235Z,2.55
2022-07-31T10:58:08.365Z,2.17
2022-07-31T11:00:37.235Z,2.00
2022-07-31T11:03:17.294Z,1.87
2022-07-31T11:06:01.651Z,2.40
2022-07-31T11:08:44.766Z,2.00
2022-07-31T11:11:14.794Z,1.95
2022-07-31T11:13:56.227Z,2.00
2022-07-31T11:16:24.369Z,1.75
2022-07-31T11:18:59.280Z,2.30
2022-07-31T11:21:45.315Z,2.17
2022-07-31T11:24:21.655Z,2.15
2022-07-31T11:30:00.510Z,1.90
2022-07-31T11:32:25.667Z,1.98
2022-07-31T11:34:55.953Z,1.75
2022-07-31T11:37:35.314Z,1.80
2022-07-31T11:40:15.107Z,1.92
2022-07-31T11:42:44.036Z,2.00
2022-07-31T11:45:12.757Z,1.52
2022-07-31T11:48:11.879Z,2.03
2022-07-31T11:50:31.595Z,1.50
2022-07-31T11:53:04.658Z,1.75
2022-07-31T11:55:33.459Z,2.03
2022-07-31T11:58:01.614Z,1.70
2022-07-31T12:00:30.280Z,1.65
2022-07-31T12:02:58.935Z,1.70
2022-07-31T12:05:39.200Z,1.70
2022-07-31T12:08:08.198Z,1.77
2022-07-31T12:10:36.357Z,2.15
2022-07-31T12:13:04.135Z,2.15
2022-07-31T12:15:32.444Z,1.70
2022-07-31T12:18:02.574Z,1.83
2022-07-31T12:20:35.933Z,1.45
2022-07-31T12:23:06.102Z,1.87
2022-07-31T12:25:45.787Z,1.73
2022-07-31T12:28:14.987Z,1.70
2022-07-31T12:30:43.351Z,1.70
2022-07-31T12:33:12.565Z,1.62
2022-07-31T12:35:56.424Z,1.70
2022-07-31T12:38:45.799Z,1.58
2022-07-31T12:41:15.007Z,1.45
2022-07-31T12:43:51.777Z,1.70
2022-07-31T12:46:22.426Z,1.77
2022-07-31T12:48:50.623Z,1.58
2022-07-31T12:51:44.961Z,1.70
2022-07-31T12:54:09.565Z,1.70
2022-07-31T12:56:39.125Z,1.85
2022-07-31T12:59:08.318Z,1.62
2022-07-31T13:01:37.165Z,1.73
2022-07-31T13:04:07.473Z,1.27
2022-07-31T13:06:37.716Z,1.30
2022-07-31T13:09:05.721Z,1.52
2022-07-31T13:11:45.888Z,1.85
2022-07-31T13:14:17.508Z,1.48
2022-07-31T13:16:46.223Z,1.60
2022-07-31T13:19:14.728Z,1.60
2022-07-31T13:21:48.953Z,1.50
2022-07-31T13:24:20.655Z,1.70
2022-07-31T13:26:50.192Z,1.60
2022-07-31T13:29:18.762Z,1.67
2022-07-31T13:31:47.417Z,1.70
2022-07-31T13:34:15.995Z,1.23
2022-07-31T13:36:45.655Z,1.55
2022-07-31T13:39:13.485Z,1.20
2022-07-31T13:41:41.997Z,1.40
2022-07-31T13:44:10.521Z,1.25
2022-07-31T13:46:38.707Z,1.55
2022-07-31T13:49:10.741Z,1.30
2022-07-31T13:51:38.919Z,1.50
2022-07-31T13:54:07.405Z,1.30
2022-07-31T13:56:42.295Z,1.75
2022-07-31T14:02:03.087Z,2.08
2022-07-31T14:04:32.218Z,1.50
2022-07-31T14:07:03.322Z,1.40
2022-07-31T14:09:34.856Z,1.30
2022-07-31T14:12:04.466Z,1.27
2022-07-31T14:14:34.346Z,1.30
2022-07-31T14:17:02.184Z,1.20
2022-07-31T14:19:30.234Z,1.52
2022-07-31T14:22:10.502Z,1.52
2022-07-31T14:24:40.450Z,1.20
2022-07-31T14:27:08.666Z,1.40
2022-07-31T14:29:37.102Z,1.40
2022-07-31T14:32:05.235Z,1.40
2022-07-31T14:34:35.768Z,1.65
2022-07-31T14:37:05.096Z,1.10
2022-07-31T14:39:33.077Z,1.30
2022-07-31T14:42:01.112Z,1.40
2022-07-31T14:44:29.608Z,1.58
2022-07-31T14:46:57.416Z,1.73
2022-07-31T14:49:25.591Z,1.40
2022-07-31T14:52:13.853Z,1.70
2022-07-31T14:54:41.982Z,1.67
2022-07-31T14:57:10.903Z,1.50
2022-07-31T14:59:39.058Z,1.55
2022-07-31T15:02:06.947Z,1.55
2022-07-31T15:04:34.881Z,1.60
2022-07-31T15:07:32.592Z,1.83
2022-07-31T15:09:51.483Z,1.50
2022-07-31T15:12:20.072Z,1.85
2022-07-31T15:14:47.880Z,1.70
2022-07-31T15:17:15.972Z,1.70
2022-07-31T15:19:44.274Z,1.73
2022-07-31T15:22:16.960Z,1.75
2022-07-31T15:24:49.139Z,1.70
2022-07-31T15:27:18.822Z,1.52
2022-07-31T15:30:00.593Z,1.70
2022-07-31T15:32:39.240Z,1.85
2022-07-31T15:35:09.696Z,1.70
2022-07-31T15:37:38.912Z,1.60
2022-07-31T15:40:10.190Z,1.50
2022-07-31T15:42:40.902Z,1.70
2022-07-31T15:45:11.156Z,1.98
2022-07-31T15:47:39.715Z,1.60
2022-07-31T15:50:09.975Z,1.83
2022-07-31T15:52:38.444Z,1.80
2022-07-31T15:55:07.575Z,1.60
2022-07-31T15:57:35.577Z,1.90
2022-07-31T16:00:06.198Z,1.90
2022-07-31T16:02:39.184Z,1.95
2022-07-31T16:05:35.805Z,1.92
2022-07-31T16:08:30.275Z,1.90
2022-07-31T16:10:50.077Z,2.08
2022-07-31T16:13:24.000Z,1.92
2022-07-31T16:15:53.647Z,1.92
2022-07-31T16:18:21.598Z,1.80
2022-07-31T16:20:51.112Z,2.30
2022-07-31T16:23:20.887Z,1.98
2022-07-31T16:25:48.875Z,2.30
2022-07-31T16:28:18.212Z,2.15
2022-07-31T16:30:48.248Z,2.37
2022-07-31T16:33:16.255Z,2.33
2022-07-31T16:35:44.081Z,2.30
2022-07-31T16:38:12.268Z,1.92
2022-07-31T16:40:40.354Z,2.22
2022-07-31T16:43:47.584Z,2.28
2022-07-31T16:45:56.878Z,2.25
2022-07-31T16:48:24.940Z,1.83
2022-07-31T16:50:54.217Z,2.10
2022-07-31T16:54:13.051Z,1.90
2022-07-31T16:56:12.307Z,2.17
2022-07-31T16:58:40.606Z,1.98
2022-07-31T17:01:58.065Z,2.17
2022-07-31T17:04:01.995Z,2.60
2022-07-31T17:06:36.481Z,2.33
2022-07-31T17:09:17.543Z,2.35
2022-07-31T17:11:48.455Z,2.00
2022-07-31T17:14:17.901Z,2.17
2022-07-31T17:16:48.411Z,2.08
2022-07-31T17:19:41.501Z,2.50
2022-07-31T17:22:11.314Z,2.05
2022-07-31T17:24:39.864Z,2.15
2022-07-31T17:27:08.957Z,2.45
2022-07-31T17:29:38.303Z,2.17
2022-07-31T17:32:06.844Z,2.30
2022-07-31T17:34:37.998Z,2.30
2022-07-31T17:37:07.475Z,2.42
2022-07-31T17:39:36.255Z,2.12
2022-07-31T17:42:04.567Z,2.28
2022-07-31T17:44:32.888Z,2.00
2022-07-31T17:47:03.556Z,2.65
2022-07-31T17:49:33.720Z,2.22
2022-07-31T17:52:01.703Z,2.40
2022-07-31T17:54:31.125Z,2.20
2022-07-31T17:57:00.927Z,2.87
2022-07-31T17:59:29.048Z,2.05
2022-07-31T18:02:00.909Z,2.37
2022-07-31T18:04:31.033Z,2.00
2022-07-31T18:07:00.025Z,2.20
2022-07-31T18:09:28.454Z,2.25
2022-07-31T18:11:58.696Z,2.12
2022-07-31T18:14:26.958Z,2.00
2022-07-31T18:16:55.369Z,1.85
2022-07-31T18:19:23.786Z,2.05
2022-07-31T18:21:54.670Z,1.90
2022-07-31T18:24:25.789Z,2.30
2022-07-31T18:26:54.576Z,2.22
2022-07-31T18:29:22.646Z,2.10
2022-07-31T18:31:51.406Z,2.30
2022-07-31T18:34:19.464Z,1.90
2022-07-31T18:36:54.632Z,2.50
2022-07-31T18:39:24.659Z,2.22
2022-07-31T18:41:53.059Z,2.30
2022-07-31T18:44:22.298Z,2.55
2022-07-31T18:46:51.495Z,2.40
2022-07-31T18:51:01.208Z,1.85
2022-07-31T18:52:09.533Z,2.17
2022-07-31T18:54:38.445Z,1.98
2022-07-31T18:57:08.104Z,1.90
2022-07-31T18:59:36.314Z,2.03
2022-07-31T19:02:04.664Z,1.70
2022-07-31T19:04:33.904Z,2.42
2022-07-31T19:07:02.313Z,1.92
2022-07-31T19:09:30.756Z,1.80
2022-07-31T19:11:59.039Z,1.95
2022-07-31T19:14:27.525Z,2.25
2022-07-31T19:16:58.232Z,2.42
2022-07-31T19:19:31.739Z,2.28
2022-07-31T19:22:15.816Z,2.50
2022-07-31T19:24:43.843Z,2.33
2022-07-31T19:27:11.753Z,1.73
2022-07-31T19:29:40.064Z,2.65
2022-07-31T19:32:08.618Z,2.25
2022-07-31T19:34:37.804Z,2.00
2022-07-31T19:37:08.421Z,2.17
2022-07-31T19:39:38.276Z,2.00
2022-07-31T19:42:21.586Z,1.98
2022-07-31T19:44:49.925Z,1.77
2022-07-31T19:47:18.565Z,2.17
2022-07-31T19:49:47.925Z,2.25
2022-07-31T19:52:15.835Z,1.65
2022-07-31T19:54:43.955Z,2.10
2022-07-31T19:57:11.814Z,1.98
2022-07-31T19:59:40.095Z,1.98
2022-07-31T20:02:08.699Z,2.37
2022-07-31T20:04:37.516Z,2.15
2022-07-31T20:07:05.354Z,2.05
2022-07-31T20:09:33.335Z,2.10
2022-07-31T20:12:01.999Z,2.10
2022-07-31T20:14:30.104Z,2.22
2022-07-31T20:16:57.974Z,1.70
2022-07-31T20:19:27.834Z,1.92
2022-07-31T20:21:55.724Z,2.15
2022-07-31T20:24:25.525Z,2.00
2022-07-31T20:26:54.527Z,2.00
2022-07-31T20:29:22.682Z,2.17
2022-07-31T20:31:50.663Z,2.03
2022-07-31T20:34:18.873Z,2.00
2022-07-31T20:36:46.633Z,1.92
2022-07-31T20:39:14.644Z,1.85
2022-07-31T20:41:42.705Z,1.90
2022-07-31T20:44:10.911Z,2.25
2022-07-31T20:46:38.725Z,1.90
2022-07-31T20:49:07.157Z,1.92
2022-07-31T20:51:47.718Z,1.90
2022-07-31T20:54:16.044Z,2.00
2022-07-31T20:56:44.002Z,1.90
2022-07-31T20:59:11.764Z,1.90
2022-07-31T21:01:42.483Z,2.25
2022-07-31T21:04:10.704Z,2.00
2022-07-31T21:06:38.784Z,1.77
2022-07-31T21:09:08.866Z,1.83
2022-07-31T21:11:36.581Z,1.80
2022-07-31T21:14:04.505Z,2.03
2022-07-31T21:16:32.778Z,2.17
2022-07-31T21:19:00.760Z,1.87
2022-07-31T21:21:28.614Z,1.92
2022-07-31T21:24:00.857Z,1.90
2022-07-31T21:26:29.462Z,2.00
2022-07-31T21:28:57.962Z,1.70
2022-07-31T21:31:26.006Z,1.75
2022-07-31T21:33:54.038Z,1.85
2022-07-31T21:36:22.346Z,1.98
2022-07-31T21:38:50.555Z,1.92
2022-07-31T21:41:18.588Z,2.00
2022-07-31T21:43:58.878Z,1.98
2022-07-31T21:46:28.964Z,1.90
2022-07-31T21:48:57.389Z,1.92
2022-07-31T21:51:25.366Z,1.77
2022-07-31T21:53:53.115Z,2.20
2022-07-31T21:56:21.278Z,1.90
2022-07-31T21:58:49.054Z,2.00
2022-07-31T22:01:16.870Z,2.00
2022-07-31T22:03:44.986Z,2.10
2022-07-31T22:06:32.026Z,2.33
2022-07-31T22:09:00.195Z,2.20
2022-07-31T22:11:28.120Z,1.90
2022-07-31T22:13:55.844Z,2.03
2022-07-31T22:16:23.995Z,2.15
2022-07-31T22:18:52.285Z,1.73
2022-07-31T22:21:20.346Z,1.95
2022-07-31T22:23:48.744Z,1.95
2022-07-31T22:26:16.734Z,1.83
2022-07-31T22:28:44.585Z,1.80
2022-07-31T22:31:13.017Z,1.95
2022-07-31T22:33:40.905Z,2.17
2022-07-31T22:36:09.155Z,2.30
2022-07-31T22:38:38.262Z,2.30
2022-07-31T22:41:06.328Z,2.10
2022-07-31T22:44:13.681Z,2.50
2022-07-31T22:46:22.384Z,2.20
2022-07-31T22:48:50.561Z,2.90
2022-07-31T22:51:18.446Z,2.28
2022-07-31T22:53:48.764Z,2.58
2022-07-31T22:56:17.998Z,2.15
2022-07-31T22:58:46.168Z,2.85
2022-07-31T23:01:14.062Z,2.37
2022-07-31T23:03:42.048Z,2.72
2022-07-31T23:06:30.698Z,2.37
2022-07-31T23:08:58.675Z,2.92
2022-07-31T23:11:27.847Z,2.90
2022-07-31T23:13:55.784Z,3.10
2022-07-31T23:16:23.716Z,2.95
2022-07-31T23:18:52.099Z,2.70
2022-07-31T23:21:19.896Z,3.40
2022-07-31T23:23:49.175Z,3.08
2022-07-31T23:26:19.019Z,3.17
2022-07-31T23:28:47.636Z,2.75
2022-07-31T23:31:15.896Z,3.03
2022-07-31T23:33:44.876Z,3.20
2022-07-31T23:36:13.067Z,3.10
2022-07-31T23:38:41.465Z,3.10
2022-07-31T23:41:09.806Z,2.80
2022-07-31T23:43:38.172Z,2.90
2022-07-31T23:46:06.045Z,2.83
2022-07-31T23:48:37.326Z,2.83
2022-07-31T23:51:07.313Z,3.08
2022-07-31T23:53:35.420Z,2.87
2022-07-31T23:56:03.214Z,3.22
2022-07-31T23:58:31.954Z,3.08
